createdAt,value
2023-03-26T00:00:42.237Z,0.00
2023-03-26T00:01:42.122Z,0.00
2023-03-26T00:02:42.075Z,0.00
2023-03-26T00:03:41.986Z,0.00
2023-03-26T00:05:02.910Z,0.00
2023-03-26T00:05:41.934Z,0.00
2023-03-26T00:06:41.818Z,0.00
2023-03-26T00:07:41.756Z,0.00
2023-03-26T00:08:41.705Z,0.00
2023-03-26T00:09:41.655Z,0.00
2023-03-26T00:10:41.568Z,0.00
2023-03-26T00:11:41.546Z,0.00
2023-03-26T00:12:41.418Z,0.00
2023-03-26T00:13:41.368Z,0.00
2023-03-26T00:14:41.311Z,0.00
2023-03-26T00:15:41.238Z,0.00
2023-03-26T00:16:41.266Z,0.00
2023-03-26T00:17:41.233Z,0.00
2023-03-26T00:18:41.121Z,0.00
2023-03-26T00:19:40.986Z,0.00
2023-03-26T00:20:40.966Z,0.00
2023-03-26T00:21:40.914Z,0.00
2023-03-26T00:22:40.843Z,0.00
2023-03-26T00:23:40.749Z,0.00
2023-03-26T00:24:40.670Z,0.00
2023-03-26T00:25:40.682Z,0.00
2023-03-26T00:26:40.583Z,0.00
2023-03-26T00:27:40.532Z,0.00
2023-03-26T00:28:40.692Z,0.00
2023-03-26T00:29:40.363Z,0.00
2023-03-26T00:30:40.306Z,0.00
2023-03-26T00:31:40.225Z,0.00
2023-03-26T00:32:40.199Z,0.00
2023-03-26T00:33:40.139Z,0.00
2023-03-26T00:34:40.062Z,0.00
2023-03-26T00:35:40.036Z,0.00
2023-03-26T00:36:39.959Z,0.00
2023-03-26T00:37:39.858Z,0.00
2023-03-26T00:38:39.870Z,0.00
2023-03-26T00:39:39.738Z,0.00
2023-03-26T00:40:39.769Z,0.00
2023-03-26T00:41:39.607Z,0.00
2023-03-26T00:42:39.553Z,0.00
2023-03-26T00:43:39.492Z,0.00
2023-03-26T00:44:39.450Z,0.00
2023-03-26T00:45:39.372Z,0.00
2023-03-26T00:46:39.339Z,0.00
2023-03-26T00:47:39.280Z,0.00
2023-03-26T00:49:39.130Z,0.00
2023-03-26T00:50:39.070Z,0.00
2023-03-26T00:51:39.214Z,0.00
2023-03-26T00:52:38.959Z,0.00
2023-03-26T00:53:39.739Z,0.00
2023-03-26T00:54:38.857Z,0.00
2023-03-26T00:55:38.732Z,0.00
2023-03-26T00:56:39.019Z,0.00
2023-03-26T00:57:38.625Z,0.00
2023-03-26T00:58:59.548Z,0.00
2023-03-26T00:59:38.549Z,0.00
2023-03-26T01:00:38.414Z,0.00
2023-03-26T01:01:39.251Z,0.00
2023-03-26T01:02:38.364Z,0.00
2023-03-26T01:03:38.339Z,0.00
2023-03-26T01:04:38.296Z,0.00
2023-03-26T01:05:38.156Z,0.00
2023-03-26T01:06:38.076Z,0.00
2023-03-26T01:07:38.003Z,0.00
2023-03-26T01:08:37.939Z,0.00
2023-03-26T01:09:37.883Z,0.00
2023-03-26T01:10:37.833Z,0.00
2023-03-26T01:11:37.785Z,0.00
2023-03-26T01:12:37.675Z,0.00
2023-03-26T01:13:37.572Z,0.00
2023-03-26T01:14:37.530Z,0.00
2023-03-26T01:15:37.619Z,0.00
2023-03-26T01:16:37.393Z,0.00
2023-03-26T01:17:37.353Z,0.00
2023-03-26T01:18:37.257Z,0.00
2023-03-26T01:19:37.288Z,0.00
2023-03-26T01:20:37.150Z,0.00
2023-03-26T01:21:37.129Z,0.00
2023-03-26T01:22:37.084Z,0.00
2023-03-26T01:23:36.960Z,0.00
2023-03-26T01:24:36.966Z,0.00
2023-03-26T01:25:36.846Z,0.00
2023-03-26T01:26:36.803Z,0.00
2023-03-26T01:27:36.708Z,0.00
2023-03-26T01:28:36.700Z,0.00
2023-03-26T01:29:36.617Z,0.00
2023-03-26T01:30:36.553Z,0.00
2023-03-26T01:31:36.458Z,0.00
2023-03-26T01:32:36.507Z,0.00
2023-03-26T01:33:36.473Z,0.00
2023-03-26T01:36:15.282Z,0.00
2023-03-26T01:37:16.251Z,0.00
2023-03-26T01:38:16.192Z,0.00
2023-03-26T01:39:16.103Z,0.00
2023-03-26T01:40:16.008Z,0.00
2023-03-26T01:41:16.062Z,0.00
2023-03-26T01:42:15.892Z,0.00
2023-03-26T01:43:15.832Z,0.00
2023-03-26T01:44:15.791Z,0.00
2023-03-26T01:45:15.757Z,0.00
2023-03-26T01:46:15.706Z,0.00
2023-03-26T01:47:15.643Z,0.00
2023-03-26T01:48:15.572Z,0.00
2023-03-26T01:49:15.486Z,0.00
2023-03-26T01:50:15.391Z,0.00
2023-03-26T01:51:15.350Z,0.00
2023-03-26T01:52:15.291Z,0.00
2023-03-26T01:53:15.248Z,0.00
2023-03-26T01:54:15.194Z,0.00
2023-03-26T01:55:15.141Z,0.00
2023-03-26T01:56:15.016Z,0.00
2023-03-26T01:57:15.008Z,0.00
2023-03-26T01:58:14.962Z,0.00
2023-03-26T01:59:14.885Z,0.00
2023-03-26T02:00:14.812Z,0.00
2023-03-26T02:01:15.250Z,0.00
2023-03-26T02:02:14.767Z,0.00
2023-03-26T02:03:14.702Z,0.00
2023-03-26T02:04:14.567Z,0.00
2023-03-26T02:05:14.488Z,0.00
2023-03-26T02:06:14.443Z,0.00
2023-03-26T02:07:14.376Z,0.00
2023-03-26T02:08:14.293Z,0.00
2023-03-26T02:09:14.225Z,0.00
2023-03-26T02:10:14.134Z,0.00
2023-03-26T02:11:35.869Z,0.00
2023-03-26T02:12:14.066Z,0.00
2023-03-26T02:13:13.966Z,0.00
2023-03-26T02:14:13.915Z,0.00
2023-03-26T02:15:13.873Z,0.00
2023-03-26T02:16:13.818Z,0.00
2023-03-26T02:17:13.766Z,0.00
2023-03-26T02:18:13.678Z,0.00
2023-03-26T02:19:13.601Z,0.00
2023-03-26T02:20:13.557Z,0.00
2023-03-26T02:21:13.511Z,0.00
2023-03-26T02:22:13.459Z,0.00
2023-03-26T02:23:13.407Z,0.00
2023-03-26T02:24:13.320Z,0.00
2023-03-26T02:25:13.292Z,0.00
2023-03-26T02:26:13.189Z,0.00
2023-03-26T02:27:13.122Z,0.00
2023-03-26T02:28:13.070Z,0.00
2023-03-26T02:29:33.976Z,0.00
2023-03-26T02:30:12.942Z,0.00
2023-03-26T02:31:12.945Z,0.00
2023-03-26T02:32:12.786Z,0.00
2023-03-26T02:33:12.790Z,0.00
2023-03-26T02:34:12.652Z,0.00
2023-03-26T02:35:12.858Z,0.00
2023-03-26T02:36:12.635Z,0.00
2023-03-26T02:37:12.534Z,0.00
2023-03-26T02:38:12.485Z,0.00
2023-03-26T02:39:12.381Z,0.00
2023-03-26T02:40:12.326Z,0.00
2023-03-26T02:41:12.334Z,0.00
2023-03-26T02:42:12.226Z,0.00
2023-03-26T02:43:12.166Z,0.00
2023-03-26T02:44:12.034Z,0.00
2023-03-26T02:45:12.011Z,0.00
2023-03-26T02:46:12.012Z,0.00
2023-03-26T02:48:21.079Z,0.00
2023-03-26T02:49:22.038Z,0.00
2023-03-26T02:50:21.955Z,0.00
2023-03-26T02:51:21.927Z,0.00
2023-03-26T02:52:21.836Z,0.00
2023-03-26T02:53:21.788Z,0.00
2023-03-26T02:54:21.703Z,0.00
2023-03-26T02:55:21.651Z,0.00
2023-03-26T02:56:21.574Z,0.00
2023-03-26T02:57:21.482Z,0.00
2023-03-26T02:58:21.419Z,0.00
2023-03-26T02:59:21.426Z,0.00
2023-03-26T03:00:21.320Z,0.00
2023-03-26T03:01:21.303Z,0.00
2023-03-26T03:02:21.243Z,0.00
2023-03-26T03:03:21.177Z,0.00
2023-03-26T03:04:21.047Z,0.00
2023-03-26T03:07:00.029Z,0.00
2023-03-26T03:08:00.941Z,0.00
2023-03-26T03:09:00.922Z,0.00
2023-03-26T03:10:00.818Z,0.00
2023-03-26T03:12:09.943Z,0.00
2023-03-26T03:13:10.941Z,0.00
2023-03-26T03:14:10.809Z,0.00
2023-03-26T03:15:10.755Z,0.00
2023-03-26T03:16:10.811Z,0.00
2023-03-26T03:17:10.642Z,0.00
2023-03-26T03:18:10.604Z,0.00
2023-03-26T03:19:10.524Z,0.00
2023-03-26T03:20:10.452Z,0.00
2023-03-26T03:21:10.426Z,0.00
2023-03-26T03:22:10.313Z,0.00
2023-03-26T03:23:10.302Z,0.00
2023-03-26T03:24:10.199Z,0.00
2023-03-26T03:25:10.144Z,0.00
2023-03-26T03:26:10.136Z,0.00
2023-03-26T03:27:10.020Z,0.00
2023-03-26T03:28:09.973Z,0.00
2023-03-26T03:29:09.964Z,0.00
2023-03-26T03:30:09.853Z,0.00
2023-03-26T03:31:09.866Z,0.00
2023-03-26T03:32:09.735Z,0.00
2023-03-26T03:33:09.613Z,0.00
2023-03-26T03:34:09.641Z,0.00
2023-03-26T03:35:09.509Z,0.00
2023-03-26T03:36:09.494Z,0.00
2023-03-26T03:37:09.433Z,0.00
2023-03-26T03:38:09.362Z,0.00
2023-03-26T03:39:09.291Z,0.00
2023-03-26T03:40:09.204Z,0.00
2023-03-26T03:41:30.154Z,0.00
2023-03-26T03:42:09.145Z,0.00
2023-03-26T03:43:09.050Z,0.00
2023-03-26T03:44:09.030Z,0.00
2023-03-26T03:45:08.940Z,0.00
2023-03-26T03:46:08.906Z,0.00
2023-03-26T03:47:08.854Z,0.00
2023-03-26T03:48:08.837Z,0.00
2023-03-26T03:49:08.640Z,0.00
2023-03-26T03:50:08.614Z,0.00
2023-03-26T03:51:08.558Z,0.00
2023-03-26T03:52:08.523Z,0.00
2023-03-26T03:53:08.441Z,0.00
2023-03-26T03:54:08.938Z,0.00
2023-03-26T03:55:08.248Z,0.00
2023-03-26T03:56:08.234Z,0.00
2023-03-26T03:57:08.200Z,0.00
2023-03-26T03:58:08.129Z,0.00
2023-03-26T03:59:08.058Z,0.00
2023-03-26T04:00:08.016Z,0.00
2023-03-26T04:01:07.977Z,0.00
2023-03-26T04:02:07.825Z,0.00
2023-03-26T04:03:07.856Z,0.00
2023-03-26T04:04:07.771Z,0.00
2023-03-26T04:05:08.434Z,0.00
2023-03-26T04:06:07.647Z,0.00
2023-03-26T04:07:07.526Z,0.00
2023-03-26T04:08:07.521Z,0.00
2023-03-26T04:09:07.425Z,0.00
2023-03-26T04:10:07.364Z,0.00
2023-03-26T04:11:07.319Z,0.00
2023-03-26T04:12:07.234Z,0.00
2023-03-26T04:13:07.171Z,0.00
2023-03-26T04:14:07.071Z,0.00
2023-03-26T04:15:07.053Z,0.00
2023-03-26T04:16:07.055Z,0.00
2023-03-26T04:17:06.899Z,0.00
2023-03-26T04:18:06.906Z,0.00
2023-03-26T04:19:06.799Z,0.00
2023-03-26T04:20:06.787Z,0.00
2023-03-26T04:21:06.677Z,0.00
2023-03-26T04:22:06.590Z,0.00
2023-03-26T04:23:06.569Z,0.00
2023-03-26T04:24:06.465Z,0.00
2023-03-26T04:25:06.376Z,0.00
2023-03-26T04:26:06.314Z,0.00
2023-03-26T04:27:06.298Z,0.00
2023-03-26T04:28:06.253Z,0.00
2023-03-26T04:29:06.149Z,0.00
2023-03-26T04:30:06.086Z,0.00
2023-03-26T04:31:06.095Z,0.00
2023-03-26T04:32:05.962Z,0.00
2023-03-26T04:33:05.971Z,0.00
2023-03-26T04:34:05.859Z,0.00
2023-03-26T04:35:05.773Z,0.00
2023-03-26T04:36:05.741Z,0.00
2023-03-26T04:37:05.644Z,0.00
2023-03-26T04:38:05.613Z,0.00
2023-03-26T04:39:05.610Z,0.00
2023-03-26T04:40:05.438Z,0.00
2023-03-26T04:41:05.438Z,0.00
2023-03-26T04:42:05.334Z,0.00
2023-03-26T04:43:05.314Z,0.00
2023-03-26T04:44:05.226Z,1.00
2023-03-26T04:45:05.209Z,0.00
2023-03-26T04:46:05.037Z,1.00
2023-03-26T04:47:05.090Z,1.00
2023-03-26T04:48:05.031Z,0.00
2023-03-26T04:49:04.887Z,0.00
2023-03-26T04:50:04.890Z,2.00
2023-03-26T04:51:04.726Z,1.00
2023-03-26T04:52:04.752Z,0.00
2023-03-26T04:53:04.649Z,2.00
2023-03-26T04:54:04.567Z,1.00
2023-03-26T04:55:04.490Z,1.00
2023-03-26T04:56:04.435Z,1.00
2023-03-26T04:57:04.441Z,5.00
2023-03-26T04:58:04.283Z,1.00
2023-03-26T04:59:04.218Z,1.00
2023-03-26T05:00:04.193Z,2.00
2023-03-26T05:01:10.338Z,3.00
2023-03-26T05:02:04.081Z,5.00
2023-03-26T05:03:03.979Z,5.00
2023-03-26T05:04:03.950Z,7.00
2023-03-26T05:05:03.894Z,11.00
2023-03-26T05:06:03.799Z,11.00
2023-03-26T05:07:03.760Z,17.00
2023-03-26T05:08:03.656Z,22.00
2023-03-26T05:09:03.623Z,24.00
2023-03-26T05:10:03.625Z,29.00
2023-03-26T05:11:03.508Z,30.00
2023-03-26T05:12:03.410Z,33.00
2023-03-26T05:13:03.361Z,38.00
2023-03-26T05:14:03.281Z,36.00
2023-03-26T05:15:03.261Z,34.00
2023-03-26T05:16:03.181Z,39.00
2023-03-26T05:17:03.132Z,38.00
2023-03-26T05:18:03.081Z,41.00
2023-03-26T05:19:02.999Z,43.00
2023-03-26T05:20:02.912Z,43.00
2023-03-26T05:21:02.881Z,43.00
2023-03-26T05:22:02.819Z,48.00
2023-03-26T05:23:02.750Z,59.00
2023-03-26T05:24:02.697Z,66.00
2023-03-26T05:25:02.599Z,74.00
2023-03-26T05:26:02.544Z,80.00
2023-03-26T05:27:02.448Z,87.00
2023-03-26T05:28:02.437Z,106.00
2023-03-26T05:29:02.348Z,114.00
2023-03-26T05:30:02.316Z,121.00
2023-03-26T05:31:02.227Z,126.00
2023-03-26T05:32:02.139Z,156.00
2023-03-26T05:33:02.235Z,158.00
2023-03-26T05:34:02.101Z,156.00
2023-03-26T05:35:01.982Z,153.00
2023-03-26T05:36:01.977Z,183.00
2023-03-26T05:37:01.891Z,196.00
2023-03-26T05:38:01.800Z,191.00
2023-03-26T05:39:01.732Z,163.00
2023-03-26T05:40:01.714Z,237.00
2023-03-26T05:41:01.634Z,262.00
2023-03-26T05:42:01.564Z,248.00
2023-03-26T05:43:01.486Z,265.00
2023-03-26T05:44:01.466Z,237.00
2023-03-26T05:45:01.416Z,272.00
2023-03-26T05:46:01.318Z,335.00
2023-03-26T05:47:01.233Z,296.00
2023-03-26T05:48:01.251Z,303.00
2023-03-26T05:49:01.121Z,303.00
2023-03-26T05:50:01.047Z,303.00
2023-03-26T05:51:00.988Z,324.00
2023-03-26T05:52:00.923Z,285.00
2023-03-26T05:53:00.846Z,353.00
2023-03-26T05:54:00.817Z,417.00
2023-03-26T05:55:00.739Z,408.00
2023-03-26T05:56:00.671Z,426.00
2023-03-26T05:57:00.667Z,497.00
2023-03-26T05:58:00.542Z,634.00
2023-03-26T05:59:00.461Z,595.00
2023-03-26T06:00:00.455Z,571.00
2023-03-26T06:01:00.386Z,575.00
2023-03-26T06:02:00.327Z,589.00
2023-03-26T06:03:00.458Z,613.00
2023-03-26T06:04:00.356Z,623.00
2023-03-26T06:05:00.155Z,648.00
2023-03-26T06:06:00.059Z,685.00
2023-03-26T06:07:00.014Z,702.00
2023-03-26T06:07:59.936Z,702.00
2023-03-26T06:09:02.041Z,711.00
2023-03-26T06:09:59.804Z,758.00
2023-03-26T06:10:59.761Z,778.00
2023-03-26T06:11:59.644Z,810.00
2023-03-26T06:12:59.634Z,838.00
2023-03-26T06:13:59.567Z,820.00
2023-03-26T06:14:59.462Z,831.00
2023-03-26T06:15:59.419Z,827.00
2023-03-26T06:16:59.441Z,849.00
2023-03-26T06:17:59.371Z,852.00
2023-03-26T06:18:59.346Z,873.00
2023-03-26T06:19:59.918Z,908.00
2023-03-26T06:20:59.118Z,964.00
2023-03-26T06:21:59.037Z,984.00
2023-03-26T06:22:59.025Z,1010.00
2023-03-26T06:23:58.926Z,1048.00
2023-03-26T06:24:58.858Z,1103.00
2023-03-26T06:25:58.807Z,1182.00
2023-03-26T06:26:58.761Z,1237.00
2023-03-26T06:27:58.729Z,1250.00
2023-03-26T06:28:58.617Z,535.00
2023-03-26T06:29:58.559Z,2929.00
2023-03-26T06:30:58.494Z,1345.00
2023-03-26T06:32:09.053Z,2084.00
2023-03-26T06:32:58.377Z,2355.00
2023-03-26T06:33:58.364Z,2317.00
2023-03-26T06:34:58.274Z,2480.00
2023-03-26T06:35:58.240Z,2775.00
2023-03-26T06:36:58.144Z,2635.00
2023-03-26T06:37:58.089Z,2658.00
2023-03-26T06:38:58.016Z,3003.00
2023-03-26T06:39:57.922Z,3048.00
2023-03-26T06:41:18.887Z,2866.00
2023-03-26T06:41:57.834Z,2770.00
2023-03-26T06:43:07.787Z,2739.00
2023-03-26T06:43:57.689Z,2966.00
2023-03-26T06:44:57.619Z,2991.00
2023-03-26T06:45:57.539Z,2994.00
2023-03-26T06:46:57.613Z,3074.00
2023-03-26T06:47:57.441Z,2849.00
2023-03-26T06:48:57.389Z,3214.00
2023-03-26T06:49:57.311Z,3182.00
2023-03-26T06:50:57.220Z,3124.00
2023-03-26T06:51:57.185Z,3680.00
2023-03-26T06:52:57.137Z,3437.00
2023-03-26T06:53:57.120Z,3374.00
2023-03-26T06:54:56.999Z,3265.00
2023-03-26T06:55:56.996Z,2924.00
2023-03-26T06:56:56.953Z,3691.00
2023-03-26T06:57:56.836Z,2699.00
2023-03-26T07:00:35.676Z,4128.00
2023-03-26T07:01:36.681Z,4033.00
2023-03-26T07:02:36.635Z,4241.00
2023-03-26T07:03:36.530Z,4406.00
2023-03-26T07:04:36.506Z,4271.00
2023-03-26T07:05:36.368Z,4269.00
2023-03-26T07:06:36.334Z,3818.00
2023-03-26T07:07:36.262Z,4224.00
2023-03-26T07:08:36.174Z,2871.00
2023-03-26T07:09:36.116Z,3759.00
2023-03-26T07:10:36.043Z,5001.00
2023-03-26T07:11:36.024Z,4397.00
2023-03-26T07:12:35.948Z,5128.00
2023-03-26T07:13:35.856Z,5717.00
2023-03-26T07:14:35.824Z,5263.00
2023-03-26T07:15:35.743Z,3903.00
2023-03-26T07:16:35.794Z,2734.00
2023-03-26T07:17:36.252Z,3211.00
2023-03-26T07:18:35.552Z,4023.00
2023-03-26T07:19:35.501Z,2980.00
2023-03-26T07:20:35.410Z,3598.00
2023-03-26T07:21:35.340Z,2986.00
2023-03-26T07:22:35.321Z,3178.00
2023-03-26T07:23:35.226Z,3082.00
2023-03-26T07:24:35.197Z,2799.00
2023-03-26T07:25:35.103Z,3078.00
2023-03-26T07:26:35.044Z,3953.00
2023-03-26T07:27:35.004Z,3895.00
2023-03-26T07:28:34.928Z,4049.00
2023-03-26T07:29:34.860Z,4590.00
2023-03-26T07:30:34.814Z,4306.00
2023-03-26T07:31:34.879Z,4123.00
2023-03-26T07:32:34.720Z,3652.00
2023-03-26T07:33:34.627Z,3493.00
2023-03-26T07:34:34.565Z,3643.00
2023-03-26T07:35:34.476Z,3186.00
2023-03-26T07:36:34.598Z,2826.00
2023-03-26T07:37:34.343Z,3165.00
2023-03-26T07:38:34.278Z,2461.00
2023-03-26T07:39:34.206Z,2621.00
2023-03-26T07:40:34.944Z,2319.00
2023-03-26T07:41:34.090Z,2493.00
2023-03-26T07:42:34.019Z,2871.00
2023-03-26T07:43:33.986Z,2495.00
2023-03-26T07:44:35.607Z,2558.00
2023-03-26T07:45:33.914Z,2489.00
2023-03-26T07:46:33.829Z,2250.00
2023-03-26T07:47:33.810Z,2212.00
2023-03-26T07:48:33.683Z,2315.00
2023-03-26T07:49:33.655Z,2225.00
2023-03-26T07:50:33.575Z,2192.00
2023-03-26T07:51:33.492Z,2236.00
2023-03-26T07:53:02.511Z,2235.00
2023-03-26T07:53:33.413Z,2484.00
2023-03-26T07:54:33.265Z,2521.00
2023-03-26T07:55:33.323Z,2349.00
2023-03-26T07:56:33.170Z,2188.00
2023-03-26T07:57:33.268Z,2069.00
2023-03-26T07:58:33.886Z,1961.00
2023-03-26T07:59:33.007Z,1764.00
2023-03-26T08:00:32.930Z,1801.00
2023-03-26T08:01:32.868Z,1539.00
2023-03-26T08:02:33.732Z,1695.00
2023-03-26T08:03:32.919Z,1676.00
2023-03-26T08:04:32.782Z,1730.00
2023-03-26T08:05:32.636Z,1686.00
2023-03-26T08:06:32.569Z,1718.00
2023-03-26T08:07:32.461Z,1703.00
2023-03-26T08:08:32.428Z,2206.00
2023-03-26T08:09:32.339Z,2040.00
2023-03-26T08:10:32.369Z,2134.00
2023-03-26T08:11:32.249Z,2008.00
2023-03-26T08:12:32.176Z,2092.00
2023-03-26T08:13:32.077Z,2093.00
2023-03-26T08:14:32.058Z,1999.00
2023-03-26T08:15:31.997Z,1908.00
2023-03-26T08:16:31.954Z,1907.00
2023-03-26T08:17:31.919Z,1837.00
2023-03-26T08:18:31.805Z,1739.00
2023-03-26T08:19:31.713Z,1726.00
2023-03-26T08:20:31.650Z,1603.00
2023-03-26T08:21:31.636Z,1562.00
2023-03-26T08:27:30.289Z,1561.00
2023-03-26T08:28:10.171Z,1526.00
2023-03-26T08:29:10.105Z,1653.00
2023-03-26T08:30:10.036Z,1526.00
2023-03-26T08:31:10.023Z,1612.00
2023-03-26T08:32:10.005Z,1467.00
2023-03-26T08:34:19.045Z,1504.00
2023-03-26T08:35:20.009Z,1495.00
2023-03-26T08:36:19.894Z,1496.00
2023-03-26T08:37:19.931Z,1533.00
2023-03-26T08:38:19.800Z,1538.00
2023-03-26T08:39:19.765Z,1483.00
2023-03-26T08:40:19.631Z,1571.00
2023-03-26T08:41:19.597Z,1518.00
2023-03-26T08:42:19.561Z,1567.00
2023-03-26T08:43:19.520Z,1693.00
2023-03-26T08:44:19.396Z,1684.00
2023-03-26T08:45:19.330Z,1779.00
2023-03-26T08:46:19.342Z,1872.00
2023-03-26T08:47:19.236Z,1877.00
2023-03-26T08:48:19.201Z,1975.00
2023-03-26T08:49:19.164Z,2136.00
2023-03-26T08:50:19.066Z,2326.00
2023-03-26T08:51:40.014Z,2387.00
2023-03-26T08:52:18.881Z,2394.00
2023-03-26T08:53:18.869Z,2451.00
2023-03-26T08:54:18.794Z,2467.00
2023-03-26T08:55:18.718Z,2780.00
2023-03-26T08:56:18.641Z,2868.00
2023-03-26T08:57:18.656Z,2875.00
2023-03-26T08:58:18.527Z,2918.00
2023-03-26T08:59:18.539Z,2884.00
2023-03-26T09:00:18.403Z,2843.00
2023-03-26T09:01:18.395Z,2706.00
2023-03-26T09:02:18.248Z,2575.00
2023-03-26T09:03:18.253Z,2633.00
2023-03-26T09:04:18.207Z,2672.00
2023-03-26T09:05:18.088Z,2555.00
2023-03-26T09:06:18.037Z,2321.00
2023-03-26T09:07:17.963Z,2145.00
2023-03-26T09:08:17.900Z,1992.00
2023-03-26T09:09:19.110Z,1715.00
2023-03-26T09:10:17.756Z,1455.00
2023-03-26T09:11:17.707Z,1418.00
2023-03-26T09:12:17.622Z,1424.00
2023-03-26T09:13:17.590Z,1448.00
2023-03-26T09:14:18.047Z,1364.00
2023-03-26T09:15:17.566Z,1407.00
2023-03-26T09:16:17.444Z,1656.00
2023-03-26T09:17:17.380Z,1740.00
2023-03-26T09:18:17.300Z,1948.00
2023-03-26T09:19:17.222Z,2005.00
2023-03-26T09:20:17.158Z,2143.00
2023-03-26T09:21:17.082Z,1955.00
2023-03-26T09:22:17.037Z,1772.00
2023-03-26T09:23:16.967Z,1810.00
2023-03-26T09:24:16.932Z,1922.00
2023-03-26T09:25:16.869Z,1933.00
2023-03-26T09:26:16.776Z,1932.00
2023-03-26T09:27:16.760Z,1883.00
2023-03-26T09:28:16.659Z,1807.00
2023-03-26T09:29:16.627Z,1841.00
2023-03-26T09:30:16.535Z,1775.00
2023-03-26T09:31:16.580Z,1743.00
2023-03-26T09:32:16.407Z,1696.00
2023-03-26T09:33:16.371Z,1547.00
2023-03-26T09:34:16.257Z,1556.00
2023-03-26T09:35:16.306Z,1712.00
2023-03-26T09:36:16.160Z,1821.00
2023-03-26T09:37:16.093Z,1847.00
2023-03-26T09:38:16.043Z,1842.00
2023-03-26T09:39:16.021Z,1826.00
2023-03-26T09:40:15.882Z,1807.00
2023-03-26T09:41:15.846Z,1770.00
2023-03-26T09:42:15.800Z,1755.00
2023-03-26T09:43:15.766Z,1777.00
2023-03-26T09:44:15.689Z,1793.00
2023-03-26T09:45:36.651Z,1846.00
2023-03-26T09:46:15.629Z,1802.00
2023-03-26T09:47:15.480Z,1718.00
2023-03-26T09:48:15.437Z,1767.00
2023-03-26T09:49:15.352Z,1814.00
2023-03-26T09:50:15.266Z,1946.00
2023-03-26T09:51:15.265Z,2069.00
2023-03-26T09:52:15.188Z,1943.00
2023-03-26T09:53:15.099Z,1841.00
2023-03-26T09:54:15.046Z,1903.00
2023-03-26T09:55:15.009Z,1759.00
2023-03-26T09:56:14.944Z,1527.00
2023-03-26T09:57:14.925Z,1944.00
2023-03-26T09:58:14.781Z,2008.00
2023-03-26T09:59:14.732Z,2057.00
2023-03-26T10:00:14.665Z,1938.00
2023-03-26T10:01:14.637Z,1931.00
2023-03-26T10:02:14.555Z,2367.00
2023-03-26T10:03:14.595Z,2529.00
2023-03-26T10:04:14.393Z,2566.00
2023-03-26T10:05:14.356Z,2356.00
2023-03-26T10:06:14.316Z,2070.00
2023-03-26T10:07:14.223Z,2335.00
2023-03-26T10:08:14.224Z,2249.00
2023-03-26T10:09:14.162Z,2228.00
2023-03-26T10:10:14.063Z,2104.00
2023-03-26T10:11:14.851Z,1985.00
2023-03-26T10:12:14.568Z,1872.00
2023-03-26T10:13:14.915Z,2047.00
2023-03-26T10:14:13.773Z,1855.00
2023-03-26T10:15:34.705Z,2240.00
2023-03-26T10:16:13.745Z,2277.00
2023-03-26T10:17:13.616Z,2259.00
2023-03-26T10:18:27.539Z,2208.00
2023-03-26T10:19:13.465Z,2075.00
2023-03-26T10:20:13.437Z,1993.00
2023-03-26T10:21:13.357Z,1917.00
2023-03-26T10:22:13.297Z,1794.00
2023-03-26T10:23:13.226Z,1719.00
2023-03-26T10:24:13.173Z,1673.00
2023-03-26T10:25:13.122Z,1684.00
2023-03-26T10:26:13.066Z,1680.00
2023-03-26T10:27:13.045Z,1692.00
2023-03-26T10:28:12.952Z,1671.00
2023-03-26T10:29:12.840Z,1671.00
2023-03-26T10:30:12.796Z,1659.00
2023-03-26T10:31:12.834Z,1640.00
2023-03-26T10:32:12.661Z,1614.00
2023-03-26T10:33:12.632Z,1574.00
2023-03-26T10:34:29.322Z,1556.00
2023-03-26T10:35:12.523Z,1542.00
2023-03-26T10:36:13.058Z,1531.00
2023-03-26T10:37:12.364Z,1525.00
2023-03-26T10:38:12.371Z,1505.00
2023-03-26T10:39:37.184Z,1464.00
2023-03-26T10:40:12.165Z,1414.00
2023-03-26T10:41:12.165Z,1376.00
2023-03-26T10:42:12.110Z,1363.00
2023-03-26T10:43:12.491Z,1360.00
2023-03-26T10:44:11.974Z,1357.00
2023-03-26T10:45:11.937Z,1377.00
2023-03-26T10:46:11.884Z,1390.00
2023-03-26T10:47:11.785Z,1393.00
2023-03-26T10:48:11.663Z,1423.00
2023-03-26T10:49:11.611Z,1422.00
2023-03-26T10:50:11.573Z,1411.00
2023-03-26T10:51:11.495Z,1362.00
2023-03-26T10:52:11.447Z,1240.00
2023-03-26T10:53:11.358Z,1172.00
2023-03-26T10:54:11.376Z,1177.00
2023-03-26T10:55:11.284Z,1168.00
2023-03-26T10:56:11.228Z,1105.00
2023-03-26T10:57:32.089Z,937.00
2023-03-26T10:58:11.080Z,847.00
2023-03-26T10:59:11.061Z,775.00
2023-03-26T11:00:10.901Z,660.00
2023-03-26T11:01:10.863Z,608.00
2023-03-26T11:02:10.825Z,572.00
2023-03-26T11:03:10.811Z,491.00
2023-03-26T11:04:10.705Z,359.00
2023-03-26T11:05:10.620Z,344.00
2023-03-26T11:06:10.578Z,722.00
2023-03-26T11:07:10.524Z,827.00
2023-03-26T11:08:10.428Z,1106.00
2023-03-26T11:09:10.436Z,1260.00
2023-03-26T11:10:10.299Z,1480.00
2023-03-26T11:11:10.262Z,1515.00
2023-03-26T11:12:25.639Z,1538.00
2023-03-26T11:13:10.155Z,1544.00
2023-03-26T11:14:10.057Z,1578.00
2023-03-26T11:15:31.094Z,1633.00
2023-03-26T11:16:10.015Z,1662.00
2023-03-26T11:17:09.887Z,1682.00
2023-03-26T11:18:09.882Z,1705.00
2023-03-26T11:19:09.747Z,1364.00
2023-03-26T11:20:09.677Z,1216.00
2023-03-26T11:21:19.207Z,1372.00
2023-03-26T11:22:09.533Z,1421.00
2023-03-26T11:23:09.557Z,1432.00
2023-03-26T11:24:09.462Z,1415.00
2023-03-26T11:25:09.368Z,1460.00
2023-03-26T11:26:09.391Z,1410.00
2023-03-26T11:27:14.433Z,1336.00
2023-03-26T11:28:09.185Z,1199.00
2023-03-26T11:29:32.768Z,1103.00
2023-03-26T11:30:09.033Z,1072.00
2023-03-26T11:31:09.066Z,1076.00
2023-03-26T11:32:08.966Z,1135.00
2023-03-26T11:34:47.802Z,816.00
2023-03-26T11:35:48.823Z,810.00
2023-03-26T11:36:48.656Z,770.00
2023-03-26T11:37:48.632Z,852.00
2023-03-26T11:38:48.554Z,975.00
2023-03-26T11:39:48.477Z,1087.00
2023-03-26T11:40:48.389Z,1030.00
2023-03-26T11:41:49.310Z,929.00
2023-03-26T11:42:48.293Z,758.00
2023-03-26T11:43:48.239Z,670.00
2023-03-26T11:44:48.185Z,525.00
2023-03-26T11:45:48.088Z,384.00
2023-03-26T11:46:48.127Z,223.00
2023-03-26T11:47:48.021Z,515.00
2023-03-26T11:48:48.831Z,706.00
2023-03-26T11:49:47.897Z,883.00
2023-03-26T11:52:26.733Z,1254.00
2023-03-26T11:53:27.682Z,1204.00
2023-03-26T11:54:27.567Z,1355.00
2023-03-26T11:55:27.526Z,1136.00
2023-03-26T11:56:27.511Z,1389.00
2023-03-26T11:57:27.466Z,1528.00
2023-03-26T11:58:27.346Z,1425.00
2023-03-26T11:59:27.253Z,1317.00
2023-03-26T12:00:27.266Z,1300.00
2023-03-26T12:01:27.129Z,1348.00
2023-03-26T12:02:27.177Z,1416.00
2023-03-26T12:03:26.980Z,1464.00
2023-03-26T12:04:27.827Z,1370.00
2023-03-26T12:05:26.867Z,1365.00
2023-03-26T12:06:27.304Z,1403.00
2023-03-26T12:07:26.805Z,1361.00
2023-03-26T12:08:47.752Z,1480.00
2023-03-26T12:09:26.620Z,1487.00
2023-03-26T12:10:26.548Z,1536.00
2023-03-26T12:11:26.572Z,1195.00
2023-03-26T12:12:26.500Z,1280.00
2023-03-26T12:13:26.383Z,1036.00
2023-03-26T12:14:26.400Z,771.00
2023-03-26T12:15:26.239Z,1176.00
2023-03-26T12:16:26.255Z,797.00
2023-03-26T12:17:31.163Z,1034.00
2023-03-26T12:18:26.062Z,1037.00
2023-03-26T12:19:26.005Z,836.00
2023-03-26T12:20:25.989Z,868.00
2023-03-26T12:21:25.891Z,893.00
2023-03-26T12:22:25.830Z,986.00
2023-03-26T12:23:25.777Z,1101.00
2023-03-26T12:24:25.712Z,1255.00
2023-03-26T12:25:25.694Z,1227.00
2023-03-26T12:26:25.678Z,1241.00
2023-03-26T12:27:25.552Z,1178.00
2023-03-26T12:28:25.468Z,1148.00
2023-03-26T12:29:25.372Z,1188.00
2023-03-26T12:30:28.022Z,1173.00
2023-03-26T12:31:26.323Z,1157.00
2023-03-26T12:32:35.667Z,1186.00
2023-03-26T12:33:27.218Z,1192.00
2023-03-26T12:34:26.211Z,1210.00
2023-03-26T12:35:24.965Z,1218.00
2023-03-26T12:36:24.962Z,1220.00
2023-03-26T12:37:25.695Z,1222.00
2023-03-26T12:38:24.859Z,1214.00
2023-03-26T12:40:10.204Z,1220.00
2023-03-26T12:40:24.707Z,1218.00
2023-03-26T12:43:40.204Z,1228.00
2023-03-26T12:45:00.084Z,1200.00
2023-03-26T12:45:05.992Z,1262.00
2023-03-26T12:47:58.375Z,1136.00
2023-03-26T12:48:08.064Z,1085.00
2023-03-26T12:48:13.635Z,1046.00
2023-03-26T12:49:13.649Z,1056.00
2023-03-26T12:50:13.484Z,1062.00
2023-03-26T12:51:13.414Z,1059.00
2023-03-26T12:52:13.325Z,1052.00
2023-03-26T12:53:14.215Z,1050.00
2023-03-26T12:54:13.268Z,1079.00
2023-03-26T12:55:13.134Z,1107.00